createdAt,value
2024-04-19T00:00:29.607Z,9.88
2024-04-19T00:05:33.283Z,9.75
2024-04-19T00:10:34.321Z,9.71
2024-04-19T00:15:35.426Z,9.78
2024-04-19T00:20:39.128Z,9.79
2024-04-19T00:25:43.044Z,9.68
2024-04-19T00:30:44.697Z,9.87
2024-04-19T00:35:48.487Z,9.78
2024-04-19T00:40:49.463Z,9.71
2024-04-19T00:45:52.302Z,9.55
2024-04-19T00:50:59.708Z,9.44
2024-04-19T00:56:02.878Z,9.23
2024-04-19T01:01:08.768Z,9.37
2024-04-19T01:06:12.656Z,9.32
2024-04-19T01:11:13.719Z,9.32
2024-04-19T01:16:16.625Z,9.27
2024-04-19T01:21:29.661Z,9.05
2024-04-19T01:26:33.346Z,9.19
2024-04-19T01:31:34.409Z,9.37
2024-04-19T01:36:35.533Z,8.79
2024-04-19T01:41:39.348Z,9.00
2024-04-19T01:46:40.544Z,9.00
2024-04-19T01:51:41.559Z,9.07
2024-04-19T01:56:45.273Z,9.22
2024-04-19T02:01:46.325Z,9.27
2024-04-19T02:06:47.408Z,9.37
2024-04-19T02:12:08.733Z,9.17
2024-04-19T02:17:09.802Z,9.29
2024-04-19T02:22:10.822Z,9.41
2024-04-19T02:27:41.513Z,9.43
2024-04-19T02:32:42.683Z,9.37
2024-04-19T02:37:43.784Z,9.37
2024-04-19T02:42:47.586Z,9.36
2024-04-19T02:47:48.625Z,9.41
2024-04-19T02:52:49.672Z,9.28
2024-04-19T02:57:53.450Z,9.24
2024-04-19T03:03:14.939Z,9.34
2024-04-19T03:08:15.934Z,9.37
2024-04-19T03:13:19.842Z,9.40
2024-04-19T03:18:21.086Z,9.21
2024-04-19T03:23:22.139Z,8.90
2024-04-19T03:28:25.896Z,9.01
2024-04-19T03:33:27.063Z,8.96
2024-04-19T03:38:29.553Z,9.17
2024-04-19T03:43:34.596Z,9.13
2024-04-19T03:48:35.620Z,9.07
2024-04-19T03:53:36.599Z,9.16
2024-04-19T03:58:40.295Z,9.20
2024-04-19T04:03:41.441Z,9.22
2024-04-19T04:08:42.448Z,9.32
2024-04-19T04:13:46.390Z,9.26
2024-04-19T04:18:47.469Z,9.25
2024-04-19T04:23:48.534Z,9.24
2024-04-19T04:28:52.447Z,9.23
2024-04-19T04:33:57.207Z,9.22
2024-04-19T04:39:01.635Z,9.29
2024-04-19T04:44:08.777Z,9.42
2024-04-19T04:49:11.430Z,9.30
2024-04-19T04:54:12.466Z,9.38
2024-04-19T04:59:17.075Z,9.39
2024-04-19T05:04:18.153Z,9.49
2024-04-19T05:09:19.409Z,9.48
2024-04-19T05:14:23.139Z,9.41
2024-04-19T05:19:29.869Z,9.53
2024-04-19T05:24:32.884Z,9.59
2024-04-19T05:29:38.845Z,9.56
2024-04-19T05:34:39.807Z,9.58
2024-04-19T05:39:41.281Z,9.47
2024-04-19T05:44:44.997Z,9.57
2024-04-19T05:49:45.911Z,9.77
2024-04-19T05:54:47.031Z,9.84
2024-04-19T05:59:50.657Z,9.80
2024-04-19T06:04:51.638Z,10.07
2024-04-19T06:09:52.704Z,10.17
2024-04-19T06:14:56.317Z,10.29
2024-04-19T06:19:57.533Z,10.37
2024-04-19T06:24:58.821Z,10.56
2024-04-19T06:30:04.508Z,10.77
2024-04-19T06:35:06.514Z,10.89
2024-04-19T06:40:09.118Z,11.08
2024-04-19T06:45:15.999Z,11.21
2024-04-19T06:50:38.221Z,11.48
2024-04-19T07:01:19.308Z,11.68
2024-04-19T07:06:30.310Z,11.63
2024-04-19T07:11:39.532Z,11.74
2024-04-19T07:16:43.407Z,11.77
2024-04-19T07:21:44.648Z,11.73
2024-04-19T07:26:48.946Z,11.96
2024-04-19T07:31:52.826Z,12.15
2024-04-19T07:36:54.783Z,12.31
2024-04-19T07:41:57.164Z,12.38
2024-04-19T07:47:01.618Z,12.35
2024-04-19T07:52:03.432Z,12.47
2024-04-19T07:57:04.622Z,12.70
2024-04-19T08:02:08.349Z,12.76
2024-04-19T08:07:24.455Z,12.83
2024-04-19T08:12:29.683Z,13.16
2024-04-19T08:17:36.928Z,13.40
2024-04-19T08:22:37.826Z,13.56
2024-04-19T08:27:44.204Z,13.76
2024-04-19T08:32:49.077Z,13.84
2024-04-19T08:37:52.467Z,13.89
2024-04-19T08:42:56.992Z,14.29
2024-04-19T08:48:02.670Z,15.17
2024-04-19T08:53:15.392Z,16.04
2024-04-19T08:58:19.659Z,16.58
2024-04-19T09:03:23.479Z,17.22
2024-04-19T09:08:24.727Z,18.22
2024-04-19T09:13:25.663Z,19.10
2024-04-19T09:18:30.146Z,20.25
2024-04-19T09:23:31.132Z,21.15
2024-04-19T09:28:33.129Z,21.11
2024-04-19T09:33:36.946Z,21.88
2024-04-19T09:38:41.335Z,22.72
2024-04-19T09:43:43.890Z,23.12
2024-04-19T09:48:51.798Z,24.12
2024-04-19T09:53:54.307Z,23.74
2024-04-19T09:58:56.626Z,24.53
2024-04-19T10:04:10.302Z,25.21
2024-04-19T10:09:14.885Z,25.84
2024-04-19T10:14:16.451Z,26.09
2024-04-19T10:19:21.044Z,27.24
2024-04-19T10:24:23.707Z,26.32
2024-04-19T10:29:27.183Z,26.26
2024-04-19T10:34:34.280Z,26.60
2024-04-19T10:39:35.679Z,27.29
2024-04-19T10:44:36.930Z,27.61
2024-04-19T10:49:40.381Z,28.89
2024-04-19T10:54:41.483Z,28.71
2024-04-19T10:59:42.790Z,28.45
2024-04-19T11:04:48.266Z,28.49
2024-04-19T11:09:49.342Z,28.85
2024-04-19T11:14:50.277Z,28.71
2024-04-19T11:19:53.607Z,30.55
2024-04-19T11:24:58.521Z,29.18
2024-04-19T11:29:59.632Z,29.86
2024-04-19T11:35:12.208Z,31.15
2024-04-19T11:40:24.018Z,30.95
2024-04-19T11:45:25.260Z,30.86
2024-04-19T11:50:32.486Z,31.04
2024-04-19T11:55:33.650Z,31.43
2024-04-19T12:00:38.318Z,30.71
2024-04-19T12:05:42.645Z,30.80
2024-04-19T12:10:43.976Z,30.96
2024-04-19T12:16:20.289Z,31.93
2024-04-19T12:21:09.547Z,31.87
2024-04-19T12:31:12.029Z,31.91
2024-04-19T12:36:19.404Z,31.56
2024-04-19T12:41:20.763Z,32.50
2024-04-19T12:46:22.326Z,32.93
2024-04-19T12:51:29.103Z,32.88
2024-04-19T12:56:30.322Z,33.04
2024-04-19T13:01:31.383Z,33.04
2024-04-19T13:06:35.687Z,33.82
2024-04-19T13:11:36.833Z,33.48
2024-04-19T13:16:38.137Z,33.34
2024-04-19T13:21:42.172Z,33.14
2024-04-19T13:26:43.503Z,32.68
2024-04-19T13:31:46.227Z,31.88
2024-04-19T13:36:50.698Z,30.83
2024-04-19T13:41:51.977Z,29.58
2024-04-19T13:46:53.172Z,29.13
2024-04-19T13:51:57.235Z,29.19
2024-04-19T13:56:58.291Z,29.24
2024-04-19T14:01:59.788Z,29.40
2024-04-19T14:07:03.566Z,30.00
2024-04-19T14:12:04.585Z,30.52
2024-04-19T14:17:05.711Z,31.55
2024-04-19T14:22:09.949Z,31.10
2024-04-19T14:27:11.142Z,31.43
2024-04-19T14:32:12.117Z,30.87
2024-04-19T14:37:16.522Z,30.69
2024-04-19T14:42:18.670Z,30.40
2024-04-19T14:47:19.838Z,29.37
2024-04-19T14:52:23.507Z,28.94
2024-04-19T14:57:25.452Z,28.20
2024-04-19T15:02:26.824Z,27.81
2024-04-19T15:07:30.611Z,27.38
2024-04-19T15:12:33.437Z,27.32
2024-04-19T15:17:34.612Z,27.24
2024-04-19T15:22:38.197Z,27.72
2024-04-19T15:27:39.135Z,28.20
2024-04-19T15:32:40.209Z,28.71
2024-04-19T15:37:44.292Z,29.11
2024-04-19T15:42:45.153Z,28.77
2024-04-19T15:47:46.278Z,28.44
2024-04-19T15:52:49.830Z,28.07
2024-04-19T15:57:50.976Z,28.20
2024-04-19T16:02:52.000Z,28.55
2024-04-19T16:07:55.694Z,28.21
2024-04-19T16:12:56.720Z,28.11
2024-04-19T16:17:58.003Z,27.62
2024-04-19T16:23:01.618Z,27.29
2024-04-19T16:28:02.775Z,27.05
2024-04-19T16:33:04.007Z,26.68
2024-04-19T16:38:07.965Z,26.18
2024-04-19T16:43:09.634Z,25.62
2024-04-19T16:48:11.414Z,25.01
2024-04-19T16:53:15.651Z,24.45
2024-04-19T16:58:19.306Z,23.87
2024-04-19T17:03:21.147Z,23.32
2024-04-19T17:08:25.299Z,22.84
2024-04-19T17:13:26.438Z,22.38
2024-04-19T17:18:30.104Z,21.97
2024-04-19T17:23:33.775Z,21.62
2024-04-19T17:28:34.758Z,21.30
2024-04-19T17:33:35.970Z,20.97
2024-04-19T17:38:40.332Z,20.68
2024-04-19T17:43:41.434Z,20.42
2024-04-19T17:48:42.519Z,20.14
2024-04-19T17:53:47.635Z,19.91
2024-04-19T17:58:48.634Z,19.70
2024-04-19T18:03:49.639Z,19.51
2024-04-19T18:08:53.324Z,19.32
2024-04-19T18:13:54.178Z,19.15
2024-04-19T18:18:55.733Z,19.00
2024-04-19T18:24:02.526Z,18.84
2024-04-19T18:29:04.724Z,18.69
2024-04-19T18:34:08.138Z,18.54
2024-04-19T18:39:11.640Z,18.42
2024-04-19T18:44:15.213Z,18.27
2024-04-19T18:49:16.766Z,18.13
2024-04-19T18:54:20.443Z,18.00
2024-04-19T18:59:22.555Z,17.87
2024-04-19T19:04:24.300Z,17.74
2024-04-19T19:09:28.554Z,17.60
2024-04-19T19:14:32.606Z,17.50
2024-04-19T19:19:37.966Z,17.40
2024-04-19T19:24:43.309Z,17.28
2024-04-19T19:29:44.159Z,17.16
2024-04-19T19:34:48.201Z,17.05
2024-04-19T19:39:54.260Z,16.92
2024-04-19T19:44:58.293Z,16.80
2024-04-19T19:50:04.431Z,16.67
2024-04-19T19:55:10.280Z,16.57
2024-04-19T20:00:28.140Z,16.46
2024-04-19T20:05:44.093Z,16.31
2024-04-19T20:10:47.870Z,16.19
2024-04-19T20:15:50.593Z,16.11
2024-04-19T20:20:54.149Z,15.97
2024-04-19T20:25:58.967Z,15.89
2024-04-19T20:31:00.922Z,15.83
2024-04-19T20:36:01.949Z,15.74
2024-04-19T20:41:05.616Z,15.64
2024-04-19T20:46:06.728Z,15.56
2024-04-19T20:51:08.240Z,15.50
2024-04-19T20:56:12.548Z,15.39
2024-04-19T21:01:15.813Z,15.33
2024-04-19T21:06:19.519Z,15.25
2024-04-19T21:11:23.487Z,15.22
2024-04-19T21:16:24.542Z,15.18
2024-04-19T21:21:27.319Z,15.05
2024-04-19T21:26:31.023Z,14.98
2024-04-19T21:31:31.980Z,14.92
2024-04-19T21:36:36.726Z,14.85
2024-04-19T21:41:40.476Z,14.76
2024-04-19T21:46:41.498Z,14.70
2024-04-19T21:51:43.540Z,14.55
2024-04-19T21:56:47.082Z,14.49
2024-04-19T22:01:48.129Z,14.49
2024-04-19T22:06:49.287Z,14.43
2024-04-19T22:11:52.962Z,14.37
2024-04-19T22:16:54.043Z,14.36
2024-04-19T22:21:55.153Z,14.25
2024-04-19T22:27:02.190Z,14.18
2024-04-19T22:32:03.148Z,14.15
2024-04-19T22:37:04.495Z,14.01
2024-04-19T22:42:08.919Z,13.96
2024-04-19T22:47:10.132Z,13.82
2024-04-19T22:52:11.498Z,13.66
2024-04-19T22:57:15.131Z,13.45
2024-04-19T23:02:16.314Z,13.51
2024-04-19T23:07:17.228Z,13.54
2024-04-19T23:12:21.003Z,13.35
2024-04-19T23:17:23.289Z,13.21
2024-04-19T23:22:24.425Z,13.11
2024-04-19T23:27:28.063Z,13.01
2024-04-19T23:32:29.123Z,12.95
2024-04-19T23:37:30.041Z,12.92
2024-04-19T23:42:34.016Z,12.92
2024-04-19T23:47:35.230Z,12.99
2024-04-19T23:52:36.325Z,13.00
2024-04-19T23:57:40.012Z,13.04
